Terminal Aerodrome Forecast
Issued by NWS Blacksburg, VA

Home | Current Version | Previous Version | Text Only | Print | Product List | Glossary On
Versions: 1 2 3 4 5 6 7 8 9 10 11 12 13 14 15 16 17 18 19 20 21 22 23 24 25 26
000
FTUS41 KRNK 180526
TAFROA
TAF
KROA 180526Z 1806/1906 00000KT P6SM SCT060
     FM180900 00000KT 6SM BR SCT015 BKN025
     FM181400 12004KT P6SM SCT020 BKN030
     FM181800 15006KT P6SM BKN045
     FM190000 14004KT P6SM SCT050 SCT100=

USA.gov is the U.S. government's official web portal to all federal, state and local government web resources and services.